createdAt,value
2023-04-29T00:01:16.341Z,7.95
2023-04-29T00:03:43.616Z,8.75
2023-04-29T00:06:11.972Z,8.20
2023-04-29T00:08:38.957Z,8.95
2023-04-29T00:11:06.312Z,10.43
2023-04-29T00:13:33.099Z,8.13
2023-04-29T00:16:00.059Z,9.13
2023-04-29T00:18:26.841Z,7.47
2023-04-29T00:20:53.603Z,6.53
2023-04-29T00:23:20.516Z,7.10
2023-04-29T00:25:47.390Z,6.90
2023-04-29T00:28:14.126Z,6.95
2023-04-29T00:30:41.056Z,7.13
2023-04-29T00:33:07.936Z,6.70
2023-04-29T00:35:34.920Z,7.88
2023-04-29T00:38:01.775Z,6.72
2023-04-29T00:40:29.163Z,7.60
2023-04-29T00:42:55.966Z,7.90
2023-04-29T00:45:23.190Z,8.13
2023-04-29T00:47:49.992Z,9.07
2023-04-29T00:50:17.098Z,7.55
2023-04-29T00:52:44.037Z,9.20
2023-04-29T00:55:13.202Z,7.50
2023-04-29T00:57:39.977Z,8.07
2023-04-29T01:00:07.608Z,10.38
2023-04-29T01:02:34.394Z,8.88
2023-04-29T01:05:01.314Z,7.70
2023-04-29T01:08:02.698Z,8.90
2023-04-29T01:10:30.881Z,7.68
2023-04-29T01:13:35.661Z,8.07
2023-04-29T01:16:04.272Z,6.80
2023-04-29T01:18:39.636Z,6.30
2023-04-29T01:21:06.555Z,7.55
2023-04-29T01:23:33.298Z,7.22
2023-04-29T01:26:00.220Z,10.35
2023-04-29T01:28:37.079Z,7.25
2023-04-29T01:31:20.638Z,7.43
2023-04-29T01:34:19.034Z,6.60
2023-04-29T01:36:57.692Z,7.40
2023-04-29T01:39:31.288Z,7.70
2023-04-29T01:42:03.327Z,6.88
2023-04-29T01:44:30.393Z,6.95
2023-04-29T01:46:57.244Z,6.40
2023-04-29T01:49:27.983Z,7.00
2023-04-29T01:51:54.780Z,7.68
2023-04-29T01:54:22.573Z,7.03
2023-04-29T01:56:49.617Z,7.47
2023-04-29T01:59:16.516Z,7.55
2023-04-29T02:01:43.250Z,7.72
2023-04-29T02:04:10.165Z,8.38
2023-04-29T02:06:36.958Z,7.55
2023-04-29T02:09:04.115Z,8.25
2023-04-29T02:11:31.144Z,8.35
2023-04-29T02:13:58.048Z,8.40
2023-04-29T02:16:24.824Z,7.85
2023-04-29T02:18:51.766Z,7.95
2023-04-29T02:21:18.498Z,8.52
2023-04-29T02:23:45.205Z,7.85
2023-04-29T02:26:12.202Z,8.32
2023-04-29T02:28:38.925Z,8.23
2023-04-29T02:31:05.683Z,8.30
2023-04-29T02:33:33.289Z,8.57
2023-04-29T02:35:59.993Z,8.10
2023-04-29T02:38:26.737Z,8.85
2023-04-29T02:40:53.533Z,8.30
2023-04-29T02:43:20.317Z,9.00
2023-04-29T02:45:47.155Z,11.25
2023-04-29T02:48:13.981Z,8.55
2023-04-29T02:50:40.927Z,7.75
2023-04-29T02:53:07.947Z,7.28
2023-04-29T02:55:34.813Z,7.30
2023-04-29T02:58:01.798Z,8.57
2023-04-29T03:00:28.555Z,8.13
2023-04-29T03:02:55.451Z,8.00
2023-04-29T03:05:22.589Z,7.85
2023-04-29T03:07:49.387Z,8.38
2023-04-29T03:10:16.140Z,7.50
2023-04-29T03:12:42.929Z,9.93
2023-04-29T03:15:10.817Z,10.48
2023-04-29T03:17:37.725Z,8.55
2023-04-29T03:20:05.538Z,9.32
2023-04-29T03:22:32.345Z,9.98
2023-04-29T03:24:59.104Z,10.10
2023-04-29T03:27:25.883Z,10.95
2023-04-29T03:29:53.279Z,10.85
2023-04-29T03:32:20.177Z,10.55
2023-04-29T03:34:47.098Z,10.40
2023-04-29T03:37:13.890Z,10.77
2023-04-29T03:39:40.676Z,12.00
2023-04-29T03:42:07.573Z,10.48
2023-04-29T03:44:34.414Z,8.95
2023-04-29T03:47:01.221Z,10.40
2023-04-29T03:49:28.160Z,9.75
2023-04-29T03:51:55.065Z,9.57
2023-04-29T03:54:21.789Z,9.77
2023-04-29T03:56:48.628Z,11.23
2023-04-29T03:59:15.582Z,9.80
2023-04-29T04:01:43.019Z,9.85
2023-04-29T04:04:09.915Z,10.20
2023-04-29T04:06:37.428Z,8.55
2023-04-29T04:09:04.266Z,10.38
2023-04-29T04:11:31.054Z,9.90
2023-04-29T04:13:57.920Z,9.20
2023-04-29T04:16:24.734Z,9.02
2023-04-29T04:18:51.569Z,9.80
2023-04-29T04:21:18.467Z,8.82
2023-04-29T04:23:45.245Z,9.43
2023-04-29T04:26:11.967Z,9.43
2023-04-29T04:28:38.880Z,9.38
2023-04-29T04:31:05.711Z,8.88
2023-04-29T04:33:32.453Z,8.82
2023-04-29T04:35:59.754Z,10.38
2023-04-29T04:38:27.991Z,10.52
2023-04-29T04:40:54.793Z,10.32
2023-04-29T04:43:21.701Z,10.50
2023-04-29T04:45:48.464Z,10.70
2023-04-29T04:48:15.292Z,11.30
2023-04-29T04:50:42.189Z,11.57
2023-04-29T04:53:09.049Z,11.02
2023-04-29T04:55:36.822Z,10.85
2023-04-29T04:58:03.684Z,10.35
2023-04-29T05:00:31.114Z,9.20
2023-04-29T05:02:58.566Z,8.55
2023-04-29T05:05:26.910Z,9.20
2023-04-29T05:07:53.861Z,10.13
2023-04-29T05:10:20.588Z,9.20
2023-04-29T05:12:47.575Z,9.57
2023-04-29T05:15:15.586Z,9.07
2023-04-29T05:17:42.368Z,9.40
2023-04-29T05:20:09.920Z,9.18
2023-04-29T05:22:36.685Z,9.52
2023-04-29T05:25:03.883Z,10.18
2023-04-29T05:27:30.969Z,10.65
2023-04-29T05:29:58.062Z,11.65
2023-04-29T05:32:25.032Z,10.60
2023-04-29T05:34:52.186Z,10.75
2023-04-29T05:37:19.371Z,9.77
2023-04-29T05:39:46.118Z,9.43
2023-04-29T05:42:12.946Z,9.85
2023-04-29T05:44:40.155Z,9.18
2023-04-29T05:47:06.986Z,9.00
2023-04-29T05:49:34.027Z,10.10
2023-04-29T05:52:04.468Z,9.20
2023-04-29T05:54:31.570Z,9.38
2023-04-29T05:56:58.469Z,9.05
2023-04-29T05:59:25.816Z,9.40
2023-04-29T06:01:52.651Z,9.95
2023-04-29T06:04:19.812Z,9.73
2023-04-29T06:06:46.814Z,13.73
2023-04-29T06:09:26.365Z,11.60
2023-04-29T06:11:54.194Z,10.20
2023-04-29T06:14:21.295Z,11.73
2023-04-29T06:16:49.321Z,9.63
2023-04-29T06:19:16.074Z,10.40
2023-04-29T06:21:43.133Z,10.55
2023-04-29T06:24:09.976Z,9.70
2023-04-29T06:26:36.899Z,10.98
2023-04-29T06:29:06.106Z,10.30
2023-04-29T06:31:33.137Z,11.77
2023-04-29T06:33:59.902Z,9.75
2023-04-29T06:36:27.417Z,10.35
2023-04-29T06:38:54.289Z,11.93
2023-04-29T06:41:21.026Z,12.30
2023-04-29T06:43:48.932Z,12.75
2023-04-29T06:46:16.429Z,14.50
2023-04-29T06:48:43.414Z,13.98
2023-04-29T06:51:10.310Z,16.20
2023-04-29T06:53:37.053Z,15.65
2023-04-29T06:56:03.878Z,40.72
2023-04-29T06:58:30.868Z,16.73
2023-04-29T07:00:57.776Z,14.93
2023-04-29T07:03:24.634Z,13.20
2023-04-29T07:05:51.595Z,13.48
2023-04-29T07:08:18.748Z,14.20
2023-04-29T07:10:47.025Z,16.40
2023-04-29T07:13:14.117Z,13.07
2023-04-29T07:15:40.889Z,11.48
2023-04-29T07:18:07.725Z,10.32
2023-04-29T07:20:37.213Z,11.88
2023-04-29T07:23:04.025Z,11.48
2023-04-29T07:25:31.201Z,12.32
2023-04-29T07:27:58.079Z,11.43
2023-04-29T07:30:25.217Z,12.88
2023-04-29T07:32:52.302Z,13.93
2023-04-29T07:35:19.149Z,11.57
2023-04-29T07:37:46.014Z,11.73
2023-04-29T07:40:12.871Z,10.27
2023-04-29T07:42:39.677Z,10.80
2023-04-29T07:45:07.163Z,10.35
2023-04-29T07:47:34.234Z,10.32
2023-04-29T07:50:01.516Z,11.50
2023-04-29T07:52:28.432Z,11.20
2023-04-29T07:54:58.551Z,11.05
2023-04-29T07:57:25.295Z,11.85
2023-04-29T07:59:55.399Z,11.82
2023-04-29T08:02:22.374Z,14.95
2023-04-29T08:04:51.748Z,12.77
2023-04-29T08:07:18.930Z,11.18
2023-04-29T08:09:45.834Z,12.93
2023-04-29T08:12:12.550Z,11.60
2023-04-29T08:14:39.336Z,10.85
2023-04-29T08:17:06.324Z,11.38
2023-04-29T08:19:33.060Z,14.20
2023-04-29T08:22:01.199Z,10.63
2023-04-29T08:24:29.378Z,11.00
2023-04-29T08:26:56.158Z,11.55
2023-04-29T08:29:22.962Z,11.75
2023-04-29T08:31:50.416Z,11.75
2023-04-29T08:34:18.284Z,12.10
2023-04-29T08:36:45.006Z,12.77
2023-04-29T08:39:11.956Z,10.95
2023-04-29T08:41:39.085Z,11.95
2023-04-29T08:44:05.908Z,10.90
2023-04-29T08:46:32.754Z,12.75
2023-04-29T08:48:59.726Z,11.43
2023-04-29T08:51:26.742Z,10.75
2023-04-29T08:53:53.613Z,14.73
2023-04-29T08:56:21.537Z,11.05
2023-04-29T08:58:51.999Z,10.35
2023-04-29T09:01:18.977Z,11.00
2023-04-29T09:04:08.914Z,10.65
2023-04-29T09:06:35.899Z,10.43
2023-04-29T09:09:03.179Z,10.10
2023-04-29T09:11:30.268Z,10.75
2023-04-29T09:14:01.714Z,9.57
2023-04-29T09:16:29.370Z,9.27
2023-04-29T09:18:57.067Z,10.25
2023-04-29T09:21:32.514Z,9.68
2023-04-29T09:24:00.879Z,9.23
2023-04-29T09:26:27.901Z,8.83
2023-04-29T09:29:14.402Z,12.48
2023-04-29T09:31:42.305Z,12.75
2023-04-29T09:34:09.292Z,13.10
2023-04-29T09:36:40.045Z,12.02
2023-04-29T09:39:11.703Z,9.18
2023-04-29T09:41:42.484Z,9.15
2023-04-29T09:44:10.275Z,11.25
2023-04-29T09:46:37.596Z,9.70
2023-04-29T09:49:07.839Z,13.05
2023-04-29T09:51:34.682Z,13.55
2023-04-29T09:54:03.265Z,12.52
2023-04-29T09:56:31.931Z,15.25
2023-04-29T09:59:08.495Z,13.65
2023-04-29T10:01:35.287Z,13.05
2023-04-29T10:04:02.180Z,11.10
2023-04-29T10:06:29.012Z,10.38
2023-04-29T10:08:56.156Z,10.00
2023-04-29T10:11:22.869Z,15.05
2023-04-29T10:13:49.621Z,14.70
2023-04-29T10:16:33.305Z,12.25
2023-04-29T10:19:01.251Z,10.60
2023-04-29T10:21:31.999Z,10.98
2023-04-29T10:23:59.627Z,11.48
2023-04-29T10:26:30.129Z,11.75
2023-04-29T10:28:57.116Z,12.13
2023-04-29T10:31:26.488Z,12.38
2023-04-29T10:36:22.404Z,12.25
2023-04-29T10:38:52.742Z,12.05
2023-04-29T10:41:28.505Z,10.80
2023-04-29T10:43:55.691Z,11.63
2023-04-29T10:46:24.038Z,10.63
2023-04-29T10:48:55.566Z,9.63
2023-04-29T10:51:34.952Z,12.68
2023-04-29T10:54:13.379Z,9.70
2023-04-29T10:56:50.481Z,10.10
2023-04-29T10:59:21.481Z,11.65
2023-04-29T11:01:52.318Z,11.10
2023-04-29T11:04:20.753Z,10.82
2023-04-29T11:06:55.573Z,10.05
2023-04-29T11:09:26.127Z,10.40
2023-04-29T11:11:54.207Z,9.77
2023-04-29T11:14:29.462Z,10.25
2023-04-29T11:17:23.639Z,10.85
2023-04-29T11:19:51.258Z,9.90
2023-04-29T11:22:18.324Z,8.60
2023-04-29T11:25:00.897Z,7.80
2023-04-29T11:27:32.940Z,7.80
2023-04-29T11:29:59.987Z,6.47
2023-04-29T11:32:37.176Z,10.38
2023-04-29T11:35:14.418Z,7.38
2023-04-29T11:37:42.059Z,11.32
2023-04-29T11:40:09.526Z,9.38
2023-04-29T11:42:57.009Z,9.90
2023-04-29T11:45:23.829Z,10.80
2023-04-29T11:47:52.076Z,12.50
2023-04-29T11:50:20.881Z,10.07
2023-04-29T11:52:48.334Z,11.80
2023-04-29T11:55:15.466Z,9.88
2023-04-29T11:57:42.405Z,11.50
2023-04-29T12:00:13.006Z,9.27
2023-04-29T12:02:40.415Z,8.98
2023-04-29T12:05:13.280Z,10.93
2023-04-29T12:07:40.481Z,9.57
2023-04-29T12:10:11.399Z,11.95
2023-04-29T12:12:41.044Z,12.70
2023-04-29T12:17:35.081Z,9.60
2023-04-29T12:20:02.500Z,8.32
2023-04-29T12:22:32.793Z,8.60
2023-04-29T12:24:59.546Z,8.60
2023-04-29T12:27:27.288Z,8.20
2023-04-29T12:29:54.110Z,8.95
2023-04-29T12:32:24.972Z,9.85
2023-04-29T12:34:55.321Z,7.72
2023-04-29T12:37:23.583Z,10.13
2023-04-29T12:39:50.917Z,11.35
2023-04-29T12:42:17.969Z,10.82
2023-04-29T12:44:48.536Z,7.75
2023-04-29T12:47:16.406Z,8.10
2023-04-29T12:49:44.482Z,7.13
2023-04-29T12:52:11.846Z,6.70
2023-04-29T12:54:45.038Z,10.05
2023-04-29T12:57:12.281Z,6.82
2023-04-29T12:59:41.193Z,7.43
2023-04-29T13:02:08.476Z,10.73
2023-04-29T13:04:35.505Z,8.10
2023-04-29T13:07:02.711Z,9.20
2023-04-29T13:09:30.652Z,10.90
2023-04-29T13:11:57.919Z,6.97
2023-04-29T13:14:24.670Z,8.15
2023-04-29T13:16:51.556Z,7.38
2023-04-29T13:19:38.390Z,10.45
2023-04-29T13:22:05.530Z,8.10
2023-04-29T13:24:33.267Z,7.40
2023-04-29T13:27:00.314Z,7.20
2023-04-29T13:29:27.333Z,8.60
2023-04-29T13:31:54.098Z,8.13
2023-04-29T13:34:21.429Z,7.28
2023-04-29T13:36:48.507Z,7.47
2023-04-29T13:39:15.315Z,7.05
2023-04-29T13:41:45.469Z,6.80
2023-04-29T13:44:23.493Z,7.78
2023-04-29T13:46:55.800Z,11.35
2023-04-29T13:49:55.780Z,7.10
2023-04-29T13:59:56.439Z,7.32
2023-04-29T14:02:26.080Z,6.13
2023-04-29T14:04:54.437Z,6.63
2023-04-29T14:07:22.064Z,6.65
2023-04-29T14:09:49.570Z,6.32
2023-04-29T14:12:16.956Z,9.85
2023-04-29T14:14:43.710Z,6.75
2023-04-29T14:17:10.470Z,7.60
2023-04-29T14:19:37.252Z,7.80
2023-04-29T14:22:04.142Z,6.60
2023-04-29T14:24:31.131Z,7.00
2023-04-29T14:26:58.228Z,6.65
2023-04-29T14:29:25.493Z,6.53
2023-04-29T14:31:52.351Z,6.68
2023-04-29T14:34:20.439Z,6.80
2023-04-29T14:36:47.205Z,8.20
2023-04-29T14:39:14.056Z,8.77
2023-04-29T14:41:40.926Z,7.22
2023-04-29T14:44:07.663Z,6.78
2023-04-29T14:46:34.545Z,10.88
2023-04-29T14:49:02.041Z,8.32
2023-04-29T14:51:29.629Z,9.70
2023-04-29T14:53:56.366Z,6.65
2023-04-29T14:56:23.187Z,7.25
2023-04-29T14:58:50.033Z,8.30
2023-04-29T15:01:16.901Z,8.88
2023-04-29T15:03:44.962Z,8.10
2023-04-29T15:06:12.418Z,7.63
2023-04-29T15:08:39.282Z,8.10
2023-04-29T15:11:06.168Z,8.73
2023-04-29T15:13:33.059Z,7.03
2023-04-29T15:15:59.852Z,10.52
2023-04-29T15:18:26.861Z,7.75
2023-04-29T15:20:53.933Z,7.03
2023-04-29T15:23:20.789Z,9.40
2023-04-29T15:25:47.598Z,10.10
2023-04-29T15:28:14.517Z,7.90
2023-04-29T15:30:41.373Z,8.13
2023-04-29T15:33:08.329Z,7.65
2023-04-29T15:35:35.223Z,8.88
2023-04-29T15:38:01.957Z,6.60
2023-04-29T15:40:28.703Z,8.13
2023-04-29T15:42:55.670Z,6.93
2023-04-29T15:45:22.420Z,6.47
2023-04-29T15:47:49.374Z,6.88
2023-04-29T15:50:16.457Z,5.53
2023-04-29T15:52:43.181Z,8.40
2023-04-29T15:55:09.989Z,6.40
2023-04-29T15:57:43.650Z,5.70
2023-04-29T16:00:11.493Z,8.73
2023-04-29T16:02:38.247Z,9.43
2023-04-29T16:05:05.424Z,6.35
2023-04-29T16:07:33.628Z,5.45
2023-04-29T16:10:01.715Z,6.45
2023-04-29T16:12:28.814Z,5.63
2023-04-29T16:14:55.604Z,7.80
2023-04-29T16:17:22.511Z,6.95
2023-04-29T16:19:49.775Z,6.65
2023-04-29T16:22:16.590Z,7.15
2023-04-29T16:24:43.390Z,7.82
2023-04-29T16:27:10.758Z,11.32
2023-04-29T16:29:37.790Z,5.00
2023-04-29T16:32:05.097Z,5.30
2023-04-29T16:34:31.961Z,5.72
2023-04-29T16:36:58.781Z,5.72
2023-04-29T16:39:25.914Z,6.47
2023-04-29T16:41:53.425Z,7.18
2023-04-29T16:44:20.268Z,6.82
2023-04-29T16:46:47.051Z,7.60
2023-04-29T16:49:14.843Z,7.10
2023-04-29T16:51:41.655Z,10.77
2023-04-29T16:54:09.733Z,7.80
2023-04-29T16:56:36.695Z,10.95
2023-04-29T16:59:03.770Z,7.90
2023-04-29T17:01:30.612Z,8.32
2023-04-29T17:03:57.514Z,7.53
2023-04-29T17:06:24.313Z,7.60
2023-04-29T17:08:51.903Z,7.90
2023-04-29T17:11:18.949Z,8.05
2023-04-29T17:13:46.538Z,8.13
2023-04-29T17:16:14.361Z,8.27
2023-04-29T17:18:41.807Z,7.38
2023-04-29T17:21:09.090Z,7.32
2023-04-29T17:23:36.043Z,10.95
2023-04-29T17:26:02.962Z,10.27
2023-04-29T17:28:29.740Z,7.28
2023-04-29T17:31:00.055Z,8.85
2023-04-29T17:33:34.120Z,10.50
2023-04-29T17:36:04.453Z,8.77
2023-04-29T17:38:33.338Z,8.73
2023-04-29T17:41:00.965Z,9.02
2023-04-29T17:43:27.862Z,9.00
2023-04-29T17:45:54.696Z,9.48
2023-04-29T17:48:22.709Z,9.38
2023-04-29T17:50:49.486Z,11.52
2023-04-29T17:53:16.217Z,11.10
2023-04-29T17:55:46.382Z,9.35
2023-04-29T17:58:13.259Z,10.20
2023-04-29T18:00:41.799Z,9.75
2023-04-29T18:03:08.924Z,9.95
2023-04-29T18:05:35.914Z,10.77
2023-04-29T18:08:02.724Z,9.73
2023-04-29T18:10:30.026Z,10.45
2023-04-29T18:12:56.827Z,13.07
2023-04-29T18:15:23.619Z,10.32
2023-04-29T18:17:51.347Z,10.65
2023-04-29T18:20:18.117Z,10.95
2023-04-29T18:22:44.982Z,10.25
2023-04-29T18:25:12.367Z,11.70
2023-04-29T18:27:39.148Z,11.40
2023-04-29T18:30:07.426Z,14.20
2023-04-29T18:32:34.260Z,12.57
2023-04-29T18:35:01.044Z,11.73
2023-04-29T18:37:27.787Z,10.07
2023-04-29T18:39:55.152Z,10.10
2023-04-29T18:42:22.149Z,9.23
2023-04-29T18:44:51.133Z,10.48
2023-04-29T18:47:18.023Z,10.07
2023-04-29T18:49:44.872Z,9.10
2023-04-29T18:52:12.018Z,11.95
2023-04-29T18:54:38.926Z,8.75
2023-04-29T18:57:06.969Z,9.30
2023-04-29T18:59:36.066Z,9.25
2023-04-29T19:02:03.451Z,10.40
2023-04-29T19:04:30.261Z,9.88
2023-04-29T19:06:57.747Z,11.23
2023-04-29T19:09:24.642Z,14.20
2023-04-29T19:11:51.370Z,14.98
2023-04-29T19:14:18.147Z,12.82
2023-04-29T19:16:45.299Z,9.30
2023-04-29T19:19:12.134Z,9.93
2023-04-29T19:21:38.906Z,8.98
2023-04-29T19:24:06.246Z,9.73
2023-04-29T19:26:35.559Z,9.52
2023-04-29T19:29:03.745Z,13.65
2023-04-29T19:31:30.756Z,10.52
2023-04-29T19:33:57.577Z,10.10
2023-04-29T19:36:24.464Z,9.05
2023-04-29T19:38:51.534Z,8.82
2023-04-29T19:41:18.383Z,8.35
2023-04-29T19:43:45.293Z,10.60
2023-04-29T19:46:15.538Z,7.95
2023-04-29T19:48:42.564Z,7.70
2023-04-29T19:51:09.649Z,8.65
2023-04-29T19:53:37.028Z,7.97
2023-04-29T19:56:03.800Z,8.70
2023-04-29T19:58:30.550Z,7.70
2023-04-29T20:00:57.546Z,7.90
2023-04-29T20:03:25.527Z,7.93
2023-04-29T20:05:52.801Z,8.65
2023-04-29T20:08:19.787Z,7.50
2023-04-29T20:10:46.674Z,6.95
2023-04-29T20:13:13.509Z,7.95
2023-04-29T20:15:40.475Z,6.90
2023-04-29T20:18:07.491Z,7.43
2023-04-29T20:20:34.214Z,6.78
2023-04-29T20:23:01.202Z,7.43
2023-04-29T20:25:28.595Z,9.75
2023-04-29T20:27:59.267Z,6.90
2023-04-29T20:30:26.981Z,9.25
2023-04-29T20:32:53.869Z,7.32
2023-04-29T20:35:20.942Z,7.20
2023-04-29T20:37:47.905Z,11.02
2023-04-29T20:40:14.641Z,7.93
2023-04-29T20:42:41.977Z,7.07
2023-04-29T20:45:09.216Z,7.45
2023-04-29T20:47:36.031Z,7.60
2023-04-29T20:50:04.708Z,7.75
2023-04-29T20:52:31.626Z,9.07
2023-04-29T20:54:58.944Z,6.82
2023-04-29T20:57:25.758Z,10.82
2023-04-29T20:59:52.935Z,6.70
2023-04-29T21:02:20.209Z,6.95
2023-04-29T21:04:47.151Z,7.75
2023-04-29T21:07:14.159Z,8.35
2023-04-29T21:09:40.926Z,8.95
2023-04-29T21:12:08.381Z,8.48
2023-04-29T21:14:35.588Z,7.50
2023-04-29T21:17:02.310Z,8.68
2023-04-29T21:19:29.053Z,7.45
2023-04-29T21:21:55.982Z,7.00
2023-04-29T21:24:22.781Z,7.47
2023-04-29T21:26:50.631Z,7.22
2023-04-29T21:29:17.619Z,7.95
2023-04-29T21:31:44.411Z,7.93
2023-04-29T21:34:11.223Z,7.72
2023-04-29T21:36:38.102Z,8.10
2023-04-29T21:39:06.312Z,8.10
2023-04-29T21:41:37.441Z,7.88
2023-04-29T21:44:04.340Z,8.88
2023-04-29T21:46:33.353Z,7.32
2023-04-29T21:49:00.249Z,8.65
2023-04-29T21:51:27.739Z,10.40
2023-04-29T21:53:54.536Z,9.20
2023-04-29T21:56:22.875Z,9.13
2023-04-29T21:58:49.859Z,8.80
2023-04-29T22:01:35.134Z,9.15
2023-04-29T22:04:02.201Z,9.93
2023-04-29T22:06:28.987Z,9.45
2023-04-29T22:08:55.934Z,9.63
2023-04-29T22:11:22.903Z,9.23
2023-04-29T22:13:49.740Z,10.77
2023-04-29T22:16:17.151Z,8.50
2023-04-29T22:18:44.059Z,8.95
2023-04-29T22:21:10.803Z,8.10
2023-04-29T22:23:37.553Z,8.80
2023-04-29T22:26:04.490Z,9.40
2023-04-29T22:28:31.187Z,10.57
2023-04-29T22:30:58.381Z,9.93
2023-04-29T22:33:25.342Z,10.00
2023-04-29T22:35:52.099Z,10.25
2023-04-29T22:38:18.985Z,9.48
2023-04-29T22:40:52.370Z,10.18
2023-04-29T22:43:19.158Z,9.77
2023-04-29T22:45:55.192Z,11.23
2023-04-29T22:48:23.239Z,9.98
2023-04-29T22:50:57.401Z,9.20
2023-04-29T22:53:24.180Z,9.55
2023-04-29T22:55:58.507Z,9.07
2023-04-29T22:58:25.879Z,9.30
2023-04-29T23:00:56.909Z,9.13
2023-04-29T23:03:24.257Z,10.65
2023-04-29T23:05:51.181Z,11.20
2023-04-29T23:08:18.047Z,13.88
2023-04-29T23:10:50.961Z,10.02
2023-04-29T23:13:17.826Z,9.43
2023-04-29T23:15:45.073Z,12.32
2023-04-29T23:18:12.111Z,8.18
2023-04-29T23:20:39.057Z,9.18
2023-04-29T23:23:06.186Z,9.10
2023-04-29T23:25:33.004Z,8.15
2023-04-29T23:27:59.758Z,9.68
2023-04-29T23:30:26.871Z,8.02
2023-04-29T23:32:53.865Z,8.13
2023-04-29T23:35:21.023Z,7.32
2023-04-29T23:37:47.869Z,8.95
2023-04-29T23:40:16.272Z,10.55
2023-04-29T23:42:43.017Z,6.88
2023-04-29T23:45:10.083Z,7.68
2023-04-29T23:47:37.042Z,6.90
2023-04-29T23:50:04.245Z,7.45
2023-04-29T23:52:31.148Z,6.95
2023-04-29T23:54:57.933Z,8.20
2023-04-29T23:57:24.828Z,7.78
2023-04-29T23:59:51.764Z,10.10
